createdAt,value
2022-12-25T00:00:00.289Z,39
2022-12-25T00:10:00.255Z,57
2022-12-25T00:20:00.741Z,75
2022-12-25T00:30:00.235Z,85
2022-12-25T00:40:00.279Z,100
2022-12-25T00:50:00.231Z,103
2022-12-25T01:00:00.287Z,70
2022-12-25T01:10:00.251Z,60
2022-12-25T01:20:00.737Z,62
2022-12-25T01:30:00.280Z,68
2022-12-25T01:40:00.322Z,75
2022-12-25T01:50:00.248Z,79
2022-12-25T02:00:00.320Z,83
2022-12-25T02:10:00.249Z,80
2022-12-25T02:20:00.247Z,66
2022-12-25T02:30:00.324Z,76
2022-12-25T02:40:00.478Z,90
2022-12-25T02:50:00.293Z,87
2022-12-25T03:00:00.319Z,62
2022-12-25T03:10:00.262Z,71
2022-12-25T03:20:00.507Z,80
2022-12-25T03:30:00.825Z,82
2022-12-25T03:40:00.496Z,86
2022-12-25T03:50:00.624Z,92
2022-12-25T04:00:00.641Z,95
2022-12-25T04:10:00.421Z,95
2022-12-25T04:20:00.575Z,96
2022-12-25T04:30:00.601Z,96
2022-12-25T04:40:00.623Z,94
2022-12-25T04:50:00.473Z,91
2022-12-25T05:00:00.346Z,92
2022-12-25T05:10:00.241Z,78
2022-12-25T05:20:00.253Z,78
2022-12-25T05:30:00.275Z,79
2022-12-25T05:40:00.370Z,68
2022-12-25T05:50:00.237Z,66
2022-12-25T06:00:00.324Z,63
2022-12-25T06:10:00.402Z,62
2022-12-25T06:20:00.262Z,85
2022-12-25T06:30:00.275Z,353
2022-12-25T06:40:00.297Z,277
2022-12-25T06:50:00.240Z,138
2022-12-25T07:00:00.372Z,121
2022-12-25T07:10:00.306Z,121
2022-12-25T07:20:00.268Z,111
2022-12-25T07:30:00.252Z,142
2022-12-25T07:40:00.276Z,295
2022-12-25T07:50:00.265Z,224
2022-12-25T08:00:00.314Z,295
2022-12-25T08:10:00.255Z,111
2022-12-25T08:20:00.275Z,103
2022-12-25T08:30:00.264Z,105
2022-12-25T08:40:00.286Z,289
2022-12-25T08:50:00.271Z,368
2022-12-25T09:00:00.290Z,310
2022-12-25T09:10:00.241Z,311
2022-12-25T09:20:00.287Z,163
2022-12-25T09:30:00.301Z,173
2022-12-25T09:40:00.268Z,179
2022-12-25T09:50:00.264Z,150
2022-12-25T10:00:00.273Z,112
2022-12-25T10:10:00.268Z,87
2022-12-25T10:20:00.320Z,81
2022-12-25T10:30:00.259Z,95
2022-12-25T10:40:00.248Z,92
2022-12-25T10:50:00.260Z,102
2022-12-25T11:00:00.269Z,94
2022-12-25T11:10:04.638Z,125
2022-12-25T11:20:00.279Z,76
2022-12-25T11:30:00.299Z,73
2022-12-25T11:40:00.261Z,402
2022-12-25T11:50:01.118Z,430
2022-12-25T12:00:00.283Z,104
2022-12-25T12:10:00.250Z,74
2022-12-25T12:20:00.307Z,75
2022-12-25T12:30:00.240Z,54
2022-12-25T12:40:00.281Z,94
2022-12-25T12:50:00.303Z,110
2022-12-25T13:00:06.551Z,241
2022-12-25T13:10:00.273Z,121
2022-12-25T13:20:00.344Z,313
2022-12-25T13:30:00.292Z,57
2022-12-25T13:40:00.303Z,217
2022-12-25T13:50:00.245Z,276
2022-12-25T14:00:00.354Z,367
2022-12-25T14:10:00.260Z,280
2022-12-25T14:20:05.981Z,127
2022-12-25T14:30:00.312Z,107
2022-12-25T14:40:00.264Z,375
2022-12-25T14:50:00.267Z,335
2022-12-25T15:00:00.482Z,335
2022-12-25T15:10:36.468Z,415
2022-12-25T15:20:00.247Z,197
2022-12-25T15:30:09.850Z,380
2022-12-25T15:40:00.248Z,433
2022-12-25T15:50:00.306Z,280
2022-12-25T16:00:00.309Z,333
2022-12-25T16:10:00.291Z,348
2022-12-25T16:20:00.334Z,247
2022-12-25T16:30:00.327Z,266
2022-12-25T16:40:00.391Z,251
2022-12-25T16:50:00.454Z,128
2022-12-25T17:00:00.311Z,121
2022-12-25T17:10:00.246Z,325
2022-12-25T17:20:00.260Z,185
2022-12-25T17:30:00.236Z,223
2022-12-25T17:40:00.305Z,135
2022-12-25T17:50:00.278Z,152
2022-12-25T18:00:00.350Z,93
2022-12-25T18:10:00.244Z,94
2022-12-25T18:20:00.251Z,177
2022-12-25T18:30:00.280Z,176
2022-12-25T18:40:00.266Z,221
2022-12-25T18:50:00.274Z,236
2022-12-25T19:00:00.307Z,248
2022-12-25T19:10:00.246Z,189
2022-12-25T19:20:00.243Z,191
2022-12-25T19:30:00.289Z,257
2022-12-25T19:40:00.312Z,297
2022-12-25T19:50:03.145Z,166
2022-12-25T20:00:00.454Z,213
2022-12-25T20:10:00.245Z,172
2022-12-25T20:20:00.249Z,176
2022-12-25T20:30:00.267Z,212
2022-12-25T20:40:00.344Z,141
2022-12-25T20:50:00.254Z,187
2022-12-25T21:00:00.284Z,131
2022-12-25T21:10:00.272Z,111
2022-12-25T21:20:00.263Z,102
2022-12-25T21:30:00.291Z,113
2022-12-25T21:40:00.266Z,103
2022-12-25T21:50:00.248Z,83
2022-12-25T22:00:00.262Z,81
2022-12-25T22:10:00.278Z,126
2022-12-25T22:20:00.253Z,144
2022-12-25T22:30:00.272Z,120
2022-12-25T22:40:00.282Z,109
2022-12-25T22:50:00.236Z,172
2022-12-25T23:00:00.359Z,138
2022-12-25T23:10:00.276Z,127
2022-12-25T23:20:00.245Z,121
2022-12-25T23:30:00.333Z,111
2022-12-25T23:40:00.284Z,98
2022-12-25T23:50:00.311Z,146
